KLM269 EDDL-EHAM
Flight info
| Callsign | KLM269 |
|---|---|
| Flight time | 0h 33m |
| Altitude | 18000 |
| Route | SONEB6Z SONEB P55 RKN |
| Aircraft | B738/M-SDE2E3FGHIRWXY/LB1 |
Departure
| Time | 2026-05-06 18:58 |
|---|---|
| Airport | Düsseldorf Airport (EDDL) |
Arrival
| Time | 2026-05-06 19:31 |
|---|---|
| Airport | Amsterdam Airport Schiphol (EHAM) |
| Time | Latitude | Longitude | Altitude | Speed | Heading |
|---|---|---|---|---|---|
| 2026-05-06 18:40 | 51.28206 | 6.76746 | 117 ft | 0 kts | 277° |
| 2026-05-06 18:50 | 51.28204 | 6.76777 | 112 ft | 4 kts | 277° |
| 2026-05-06 18:50 | 51.28200 | 6.76814 | 112 ft | 4 kts | 298° |
| 2026-05-06 18:51 | 51.28184 | 6.76836 | 113 ft | 4 kts | 359° |
| 2026-05-06 18:51 | 51.28166 | 6.76834 | 115 ft | 1 kts | 6° |
| 2026-05-06 18:51 | 51.28163 | 6.76834 | 115 ft | 0 kts | 6° |
| 2026-05-06 18:54 | 51.28168 | 6.76835 | 117 ft | 6 kts | 6° |
| 2026-05-06 18:54 | 51.28250 | 6.76849 | 117 ft | 18 kts | 1° |
| 2026-05-06 18:55 | 51.28352 | 6.76748 | 117 ft | 17 kts | 322° |
| 2026-05-06 18:55 | 51.28408 | 6.76623 | 117 ft | 13 kts | 253° |
| 2026-05-06 18:55 | 51.28353 | 6.76485 | 115 ft | 16 kts | 232° |
| 2026-05-06 18:55 | 51.28277 | 6.76329 | 113 ft | 19 kts | 233° |
| 2026-05-06 18:56 | 51.28189 | 6.76148 | 115 ft | 22 kts | 231° |
| 2026-05-06 18:56 | 51.28093 | 6.75942 | 115 ft | 24 kts | 233° |
| 2026-05-06 18:56 | 51.27985 | 6.75721 | 115 ft | 26 kts | 233° |
| 2026-05-06 18:56 | 51.27875 | 6.75483 | 117 ft | 26 kts | 233° |
| 2026-05-06 18:57 | 51.27856 | 6.75342 | 117 ft | 11 kts | 318° |
| 2026-05-06 18:57 | 51.27958 | 6.75266 | 113 ft | 23 kts | 341° |
| 2026-05-06 18:57 | 51.28063 | 6.75407 | 113 ft | 27 kts | 52° |
| 2026-05-06 18:57 | 51.28342 | 6.75987 | 116 ft | 107 kts | 51° |
| 2026-05-06 18:58 | 51.28928 | 6.77234 | 238 ft | 166 kts | 53° |
| 2026-05-06 18:58 | 51.29616 | 6.78808 | 1165 ft | 173 kts | 52° |
| 2026-05-06 18:58 | 51.30285 | 6.80359 | 2380 ft | 170 kts | 53° |
| 2026-05-06 18:58 | 51.31004 | 6.81942 | 3037 ft | 189 kts | 50° |
| 2026-05-06 18:59 | 51.31882 | 6.83709 | 3282 ft | 216 kts | 50° |
| 2026-05-06 18:59 | 51.32857 | 6.85686 | 3638 ft | 235 kts | 50° |
| 2026-05-06 18:59 | 51.33867 | 6.87781 | 4295 ft | 242 kts | 52° |
| 2026-05-06 18:59 | 51.34994 | 6.89861 | 4917 ft | 253 kts | 34° |
| 2026-05-06 19:00 | 51.36616 | 6.90954 | 5811 ft | 254 kts | 13° |
| 2026-05-06 19:00 | 51.38357 | 6.91468 | 6774 ft | 254 kts | 9° |
| 2026-05-06 19:00 | 51.40128 | 6.91894 | 7563 ft | 261 kts | 8° |
| 2026-05-06 19:00 | 51.41942 | 6.92330 | 8392 ft | 265 kts | 9° |
| 2026-05-06 19:01 | 51.43776 | 6.92795 | 9245 ft | 269 kts | 9° |
| 2026-05-06 19:01 | 51.45644 | 6.93284 | 10053 ft | 274 kts | 9° |
| 2026-05-06 19:01 | 51.47536 | 6.93786 | 10829 ft | 277 kts | 9° |
| 2026-05-06 19:01 | 51.49452 | 6.94269 | 11609 ft | 281 kts | 4° |
| 2026-05-06 19:02 | 51.51402 | 6.94023 | 12384 ft | 284 kts | 350° |
| 2026-05-06 19:02 | 51.53350 | 6.93449 | 13190 ft | 287 kts | 349° |
| 2026-05-06 19:02 | 51.55333 | 6.92860 | 13948 ft | 291 kts | 349° |
| 2026-05-06 19:02 | 51.57397 | 6.92256 | 13985 ft | 315 kts | 349° |
| 2026-05-06 19:03 | 51.59635 | 6.91612 | 13978 ft | 338 kts | 350° |
| 2026-05-06 19:03 | 51.62033 | 6.90929 | 14022 ft | 361 kts | 350° |
| 2026-05-06 19:03 | 51.64567 | 6.90213 | 14230 ft | 378 kts | 350° |
| 2026-05-06 19:03 | 51.67201 | 6.89464 | 14569 ft | 390 kts | 349° |
| 2026-05-06 19:04 | 51.69901 | 6.88705 | 14986 ft | 398 kts | 349° |
| 2026-05-06 19:04 | 51.72642 | 6.87868 | 15545 ft | 400 kts | 347° |
| 2026-05-06 19:04 | 51.75318 | 6.86680 | 15870 ft | 401 kts | 337° |
| 2026-05-06 19:04 | 51.77797 | 6.84493 | 15914 ft | 411 kts | 325° |
| 2026-05-06 19:05 | 51.80013 | 6.81553 | 15895 ft | 413 kts | 315° |
| 2026-05-06 19:05 | 51.81981 | 6.78205 | 15909 ft | 410 kts | 313° |
| 2026-05-06 19:05 | 51.83922 | 6.74839 | 15903 ft | 409 kts | 313° |
| 2026-05-06 19:05 | 51.85856 | 6.71476 | 15906 ft | 408 kts | 313° |
| 2026-05-06 19:06 | 51.87791 | 6.68119 | 15908 ft | 408 kts | 313° |
| 2026-05-06 19:06 | 51.89705 | 6.64808 | 15909 ft | 408 kts | 313° |
| 2026-05-06 19:06 | 51.91673 | 6.61410 | 15912 ft | 408 kts | 313° |
| 2026-05-06 19:06 | 51.93617 | 6.58056 | 15914 ft | 409 kts | 313° |
| 2026-05-06 19:07 | 51.95541 | 6.54737 | 15912 ft | 410 kts | 313° |
| 2026-05-06 19:07 | 51.97500 | 6.51356 | 15917 ft | 411 kts | 313° |
| 2026-05-06 19:07 | 51.99476 | 6.47939 | 15914 ft | 411 kts | 313° |
| 2026-05-06 19:07 | 52.01434 | 6.44550 | 15916 ft | 411 kts | 313° |
| 2026-05-06 19:08 | 52.03364 | 6.41207 | 15921 ft | 411 kts | 313° |
| 2026-05-06 19:08 | 52.05321 | 6.37810 | 15921 ft | 411 kts | 313° |
| 2026-05-06 19:08 | 52.07274 | 6.34415 | 15926 ft | 411 kts | 313° |
| 2026-05-06 19:08 | 52.09226 | 6.31018 | 15927 ft | 411 kts | 313° |
| 2026-05-06 19:09 | 52.11172 | 6.27625 | 15928 ft | 410 kts | 313° |
| 2026-05-06 19:09 | 52.13117 | 6.24230 | 15937 ft | 410 kts | 313° |
| 2026-05-06 19:09 | 52.15058 | 6.20836 | 15933 ft | 409 kts | 313° |
| 2026-05-06 19:09 | 52.16995 | 6.17445 | 15931 ft | 409 kts | 313° |
| 2026-05-06 19:10 | 52.18931 | 6.14052 | 15929 ft | 409 kts | 313° |
| 2026-05-06 19:10 | 52.20861 | 6.10665 | 15932 ft | 405 kts | 313° |
| 2026-05-06 19:10 | 52.22743 | 6.07357 | 15815 ft | 393 kts | 313° |
| 2026-05-06 19:10 | 52.24589 | 6.04110 | 15369 ft | 385 kts | 313° |
| 2026-05-06 19:11 | 52.26403 | 6.00912 | 14867 ft | 381 kts | 313° |
| 2026-05-06 19:11 | 52.28193 | 5.97755 | 14326 ft | 377 kts | 313° |
| 2026-05-06 19:11 | 52.29962 | 5.94630 | 13794 ft | 373 kts | 313° |
| 2026-05-06 19:11 | 52.31714 | 5.91530 | 13207 ft | 370 kts | 313° |
| 2026-05-06 19:12 | 52.33453 | 5.88450 | 12645 ft | 366 kts | 313° |
| 2026-05-06 19:12 | 52.35165 | 5.85413 | 12121 ft | 361 kts | 313° |
| 2026-05-06 19:12 | 52.36858 | 5.82406 | 11587 ft | 358 kts | 313° |
| 2026-05-06 19:12 | 52.38536 | 5.79420 | 11061 ft | 355 kts | 313° |
| 2026-05-06 19:13 | 52.40159 | 5.76528 | 10898 ft | 340 kts | 313° |
| 2026-05-06 19:13 | 52.41712 | 5.73757 | 10726 ft | 319 kts | 313° |
| 2026-05-06 19:13 | 52.43167 | 5.71158 | 10585 ft | 301 kts | 313° |
| 2026-05-06 19:13 | 52.44551 | 5.68686 | 10462 ft | 289 kts | 314° |
| 2026-05-06 19:14 | 52.45882 | 5.66305 | 10351 ft | 279 kts | 313° |
| 2026-05-06 19:14 | 52.47190 | 5.63964 | 10247 ft | 281 kts | 313° |
| 2026-05-06 19:14 | 52.48425 | 5.61445 | 10114 ft | 284 kts | 297° |
| 2026-05-06 19:14 | 52.48939 | 5.58348 | 9852 ft | 283 kts | 277° |
| 2026-05-06 19:15 | 52.48988 | 5.55112 | 9533 ft | 284 kts | 270° |
| 2026-05-06 19:15 | 52.48780 | 5.51880 | 9226 ft | 286 kts | 260° |
| 2026-05-06 19:15 | 52.48114 | 5.48809 | 8888 ft | 287 kts | 243° |
| 2026-05-06 19:15 | 52.47111 | 5.45978 | 8587 ft | 286 kts | 240° |
| 2026-05-06 19:16 | 52.46088 | 5.43185 | 8263 ft | 287 kts | 240° |
| 2026-05-06 19:16 | 52.45051 | 5.40379 | 7964 ft | 287 kts | 239° |
| 2026-05-06 19:16 | 52.44015 | 5.37581 | 7659 ft | 288 kts | 240° |
| 2026-05-06 19:16 | 52.43001 | 5.34842 | 7353 ft | 287 kts | 239° |
| 2026-05-06 19:17 | 52.41958 | 5.32026 | 7045 ft | 287 kts | 240° |
| 2026-05-06 19:17 | 52.40924 | 5.29237 | 6748 ft | 286 kts | 239° |
| 2026-05-06 19:17 | 52.39885 | 5.26431 | 6471 ft | 291 kts | 239° |
| 2026-05-06 19:17 | 52.38829 | 5.23593 | 6170 ft | 292 kts | 239° |
| 2026-05-06 19:18 | 52.37784 | 5.20783 | 5841 ft | 285 kts | 239° |
| 2026-05-06 19:18 | 52.36754 | 5.18011 | 5502 ft | 277 kts | 240° |
| 2026-05-06 19:18 | 52.35766 | 5.15357 | 5188 ft | 269 kts | 239° |
| 2026-05-06 19:18 | 52.34803 | 5.12772 | 4865 ft | 263 kts | 239° |
| 2026-05-06 19:19 | 52.33862 | 5.10251 | 4557 ft | 257 kts | 239° |
| 2026-05-06 19:19 | 52.32947 | 5.07808 | 4440 ft | 248 kts | 239° |
| 2026-05-06 19:19 | 52.32040 | 5.05478 | 4435 ft | 239 kts | 238° |
| 2026-05-06 19:19 | 52.31136 | 5.03207 | 4445 ft | 240 kts | 238° |
| 2026-05-06 19:20 | 52.30206 | 5.00883 | 4456 ft | 247 kts | 238° |
| 2026-05-06 19:20 | 52.29257 | 4.98528 | 4445 ft | 248 kts | 238° |
| 2026-05-06 19:20 | 52.28304 | 4.96181 | 4442 ft | 248 kts | 238° |
| 2026-05-06 19:20 | 52.27353 | 4.93840 | 4447 ft | 246 kts | 237° |
| 2026-05-06 19:21 | 52.26406 | 4.91518 | 4427 ft | 245 kts | 237° |
| 2026-05-06 19:21 | 52.25460 | 4.89205 | 4424 ft | 245 kts | 238° |
| 2026-05-06 19:21 | 52.24523 | 4.86910 | 4433 ft | 243 kts | 238° |
| 2026-05-06 19:21 | 52.23573 | 4.84597 | 4452 ft | 246 kts | 237° |
| 2026-05-06 19:22 | 52.22616 | 4.82265 | 4442 ft | 248 kts | 237° |
| 2026-05-06 19:22 | 52.21648 | 4.79911 | 4439 ft | 251 kts | 237° |
| 2026-05-06 19:22 | 52.20686 | 4.77555 | 4439 ft | 248 kts | 238° |
| 2026-05-06 19:22 | 52.19735 | 4.75220 | 4452 ft | 245 kts | 237° |
| 2026-05-06 19:23 | 52.18802 | 4.72911 | 4438 ft | 243 kts | 238° |
| 2026-05-06 19:23 | 52.17867 | 4.70626 | 4434 ft | 241 kts | 237° |
| 2026-05-06 19:23 | 52.16935 | 4.68365 | 4438 ft | 239 kts | 238° |
| 2026-05-06 19:23 | 52.16000 | 4.66112 | 4434 ft | 242 kts | 237° |
| 2026-05-06 19:24 | 52.15051 | 4.63826 | 4370 ft | 247 kts | 237° |
| 2026-05-06 19:24 | 52.14089 | 4.61492 | 4070 ft | 253 kts | 238° |
| 2026-05-06 19:24 | 52.13106 | 4.59105 | 3861 ft | 246 kts | 237° |
| 2026-05-06 19:24 | 52.12181 | 4.56845 | 3604 ft | 240 kts | 237° |
| 2026-05-06 19:25 | 52.11372 | 4.54528 | 3311 ft | 232 kts | 255° |
| 2026-05-06 19:25 | 52.11325 | 4.52018 | 3073 ft | 217 kts | 291° |
| 2026-05-06 19:25 | 52.12139 | 4.50073 | 3012 ft | 201 kts | 329° |
| 2026-05-06 19:25 | 52.13398 | 4.49244 | 2930 ft | 199 kts | 355° |
| 2026-05-06 19:26 | 52.14747 | 4.49548 | 2819 ft | 197 kts | 26° |
| 2026-05-06 19:26 | 52.15921 | 4.50645 | 2676 ft | 195 kts | 32° |
| 2026-05-06 19:26 | 52.17081 | 4.51772 | 2519 ft | 193 kts | 32° |
| 2026-05-06 19:26 | 52.18230 | 4.52899 | 2365 ft | 192 kts | 32° |
| 2026-05-06 19:27 | 52.19343 | 4.53990 | 2181 ft | 183 kts | 32° |
| 2026-05-06 19:27 | 52.20437 | 4.55057 | 2054 ft | 181 kts | 32° |
| 2026-05-06 19:27 | 52.21495 | 4.56083 | 2001 ft | 175 kts | 32° |
| 2026-05-06 19:27 | 52.22472 | 4.57211 | 1987 ft | 170 kts | 50° |
| 2026-05-06 19:28 | 52.23120 | 4.58793 | 1996 ft | 166 kts | 55° |
| 2026-05-06 19:28 | 52.23765 | 4.60329 | 1900 ft | 163 kts | 55° |
| 2026-05-06 19:28 | 52.24372 | 4.61866 | 1720 ft | 159 kts | 57° |
| 2026-05-06 19:28 | 52.24953 | 4.63380 | 1481 ft | 156 kts | 56° |
| 2026-05-06 19:29 | 52.25523 | 4.64873 | 1287 ft | 152 kts | 57° |
| 2026-05-06 19:29 | 52.26071 | 4.66304 | 1075 ft | 144 kts | 57° |
| 2026-05-06 19:29 | 52.26568 | 4.67621 | 920 ft | 128 kts | 57° |
| 2026-05-06 19:29 | 52.27024 | 4.68863 | 755 ft | 129 kts | 55° |
| 2026-05-06 19:30 | 52.27502 | 4.70090 | 608 ft | 129 kts | 54° |
| 2026-05-06 19:30 | 52.28017 | 4.71400 | 472 ft | 156 kts | 56° |
| 2026-05-06 19:30 | 52.28587 | 4.72895 | 241 ft | 150 kts | 54° |
| 2026-05-06 19:30 | 52.29117 | 4.74268 | 24 ft | 132 kts | 54° |
| 2026-05-06 19:31 | 52.29558 | 4.75400 | -3 ft | 106 kts | 58° |
| 2026-05-06 19:31 | 52.29916 | 4.76331 | -5 ft | 90 kts | 57° |
| 2026-05-06 19:31 | 52.30437 | 4.77407 | -3 ft | 19 kts | 12° |
| 2026-05-06 19:32 | 52.30540 | 4.77443 | -2 ft | 17 kts | 52° |
| 2026-05-06 19:32 | 52.30626 | 4.77566 | -2 ft | 14 kts | 14° |
| 2026-05-06 19:32 | 52.30698 | 4.77586 | -2 ft | 11 kts | 9° |
| 2026-05-06 19:32 | 52.30777 | 4.77599 | -2 ft | 14 kts | 7° |
| 2026-05-06 19:33 | 52.30829 | 4.77521 | -2 ft | 11 kts | 282° |
| 2026-05-06 19:33 | 52.30834 | 4.77414 | -2 ft | 8 kts | 272° |
| 2026-05-06 19:33 | 52.30834 | 4.77396 | -2 ft | 3 kts | 272° |
| 2026-05-06 19:33 | 52.30844 | 4.77371 | -2 ft | 3 kts | 330° |
| 2026-05-06 19:34 | 52.30865 | 4.77366 | -2 ft | 6 kts | 358° |
| 2026-05-06 19:34 | 52.30883 | 4.77367 | -2 ft | 3 kts | 3° |
| 2026-05-06 19:34 | 52.30888 | 4.77367 | -2 ft | 1 kts | 2° |
| 2026-05-06 19:34 | 52.30893 | 4.77367 | -2 ft | 1 kts | 1° |
| 2026-05-06 19:35 | 52.30895 | 4.77367 | -2 ft | 0 kts | 2° |